Time;durP1;ratioP1;P1;durP2;ratioP2;P2;SDS_P1;SDS_P2;PMS_P1;PMS_P2;Temp;Humidity;BMP_temperature;BMP_pressure;BME280_temperature;BME280_humidity;BME280_pressure;Samples;Min_cycle;Max_cycle;Signal;HPM_P1;HPM_P2
2022/04/14 00:02:24;;;;;;;12.20;7.80;;;16.70;99.90;;;;;;5052553;28;20033;-45
2022/04/14 00:04:49;;;;;;;15.15;7.15;;;16.70;99.90;;;;;;5052225;28;20097;-48
2022/04/14 00:07:15;;;;;;;13.88;6.90;;;16.70;99.90;;;;;;5052000;28;20060;-46
2022/04/14 00:09:41;;;;;;;14.00;7.03;;;16.60;99.90;;;;;;5052417;28;20044;-46
2022/04/14 00:12:07;;;;;;;10.40;7.30;;;16.60;99.90;;;;;;5052155;28;20108;-44
2022/04/14 00:14:33;;;;;;;10.65;7.30;;;16.60;99.90;;;;;;5052152;28;20481;-45
2022/04/14 00:16:59;;;;;;;10.10;7.22;;;16.60;99.90;;;;;;5072092;23;20053;-45
2022/04/14 00:19:24;;;;;;;16.85;7.50;;;16.60;99.90;;;;;;5052108;28;20140;-45
2022/04/14 00:21:50;;;;;;;11.43;8.05;;;16.50;99.90;;;;;;5052037;28;20032;-44
2022/04/14 00:24:15;;;;;;;13.65;7.75;;;16.50;99.90;;;;;;5052179;28;20021;-47
2022/04/14 00:26:44;;;;;;;12.95;7.78;;;16.50;99.90;;;;;;5051765;28;20099;-43
2022/04/14 00:29:11;;;;;;;16.80;7.75;;;16.50;99.90;;;;;;5051881;28;20071;-45
2022/04/14 00:31:36;;;;;;;15.48;8.48;;;16.60;99.90;;;;;;5051858;28;20028;-46
2022/04/14 00:34:02;;;;;;;10.77;8.52;;;16.60;99.90;;;;;;5051772;28;20021;-44
2022/04/14 00:36:28;;;;;;;17.90;9.02;;;16.50;99.90;;;;;;5051756;28;20032;-49
2022/04/14 00:38:54;;;;;;;14.85;8.77;;;16.50;99.90;;;;;;5050270;28;20112;-47
2022/04/14 00:41:19;;;;;;;15.95;8.40;;;16.50;99.90;;;;;;5051941;28;20103;-45
2022/04/14 00:43:51;;;;;;;10.93;8.63;;;16.50;99.90;;;;;;5051742;28;20487;-47
2022/04/14 00:46:17;;;;;;;14.30;9.82;;;16.50;99.90;;;;;;5051625;28;20036;-46
2022/04/14 00:48:44;;;;;;;10.52;8.20;;;16.50;99.90;;;;;;5050798;28;20024;-45
2022/04/14 00:51:09;;;;;;;17.65;9.88;;;16.50;99.90;;;;;;5051632;28;20082;-45
2022/04/14 00:53:36;;;;;;;15.32;9.50;;;16.40;99.90;;;;;;5051812;28;20013;-43
2022/04/14 00:56:02;;;;;;;15.52;9.88;;;16.40;99.90;;;;;;5051719;28;20438;-45
2022/04/14 00:58:27;;;;;;;13.65;10.02;;;16.40;99.90;;;;;;5051592;28;20031;-44
2022/04/14 01:00:53;;;;;;;16.67;10.00;;;16.30;99.90;;;;;;5051673;28;20404;-46
2022/04/14 01:03:18;;;;;;;15.45;9.13;;;16.30;99.90;;;;;;5051572;28;20139;-43
2022/04/14 01:05:45;;;;;;;18.02;11.13;;;16.30;99.90;;;;;;5051405;28;20017;-47
2022/04/14 01:08:15;;;;;;;13.48;9.40;;;16.30;99.90;;;;;;5051279;28;20025;-46
2022/04/14 01:10:47;;;;;;;13.75;9.52;;;16.30;99.90;;;;;;5051659;28;20154;-43
2022/04/14 01:13:13;;;;;;;15.63;10.40;;;16.30;99.90;;;;;;5051579;28;20499;-46
2022/04/14 01:15:39;;;;;;;14.05;10.25;;;16.30;99.90;;;;;;5051250;28;20028;-44
2022/04/14 01:18:05;;;;;;;14.07;10.27;;;16.30;99.90;;;;;;5051215;28;20029;-45
2022/04/14 01:20:31;;;;;;;12.82;9.48;;;16.30;99.90;;;;;;5051435;28;20033;-43
2022/04/14 01:23:01;;;;;;;13.68;9.73;;;16.30;99.90;;;;;;5051392;28;20029;-46
2022/04/14 01:25:26;;;;;;;15.77;10.15;;;16.30;99.90;;;;;;5051242;28;20048;-43
2022/04/14 01:27:52;;;;;;;13.73;9.48;;;16.30;99.90;;;;;;5033002;28;20063;-44
2022/04/14 01:30:18;;;;;;;16.40;9.38;;;16.20;99.90;;;;;;5051239;28;20025;-46
2022/04/14 01:32:44;;;;;;;14.13;9.40;;;16.20;99.90;;;;;;5051183;28;20022;-46
2022/04/14 01:35:10;;;;;;;17.05;8.50;;;16.20;99.90;;;;;;5051036;28;20043;-43
2022/04/14 01:37:35;;;;;;;19.70;9.30;;;16.20;99.90;;;;;;5050867;28;20039;-44
2022/04/14 01:40:01;;;;;;;15.38;8.68;;;16.20;99.90;;;;;;5051134;28;20041;-47
2022/04/14 01:42:26;;;;;;;15.27;8.98;;;16.20;99.90;;;;;;5049687;28;20021;-43
2022/04/14 01:44:52;;;;;;;19.65;9.57;;;16.20;99.90;;;;;;5051003;28;20552;-43
2022/04/14 01:47:17;;;;;;;13.15;9.43;;;16.10;99.90;;;;;;5050643;28;20540;-46
2022/04/14 01:49:43;;;;;;;12.35;9.00;;;16.10;99.90;;;;;;5051210;28;20074;-45
2022/04/14 01:52:09;;;;;;;20.42;9.23;;;16.00;99.90;;;;;;5050934;28;20021;-48
2022/04/14 01:54:34;;;;;;;12.57;8.77;;;16.00;99.90;;;;;;5050968;28;20400;-45
2022/04/14 01:57:00;;;;;;;17.92;8.90;;;16.00;99.90;;;;;;5050584;28;20036;-48
2022/04/14 01:59:25;;;;;;;13.30;9.57;;;16.00;99.90;;;;;;5052593;28;20037;-46
2022/04/14 02:01:51;;;;;;;15.55;9.38;;;15.90;99.90;;;;;;5054703;28;20396;-44
2022/04/14 02:04:16;;;;;;;14.05;9.05;;;15.90;99.90;;;;;;5054935;28;20029;-44
2022/04/14 02:06:42;;;;;;;14.50;9.00;;;15.90;99.90;;;;;;5054549;28;20029;-46
2022/04/14 02:09:08;;;;;;;16.40;9.43;;;15.90;99.90;;;;;;5054291;28;20025;-45
2022/04/14 02:11:33;;;;;;;14.82;8.85;;;15.90;99.90;;;;;;5054589;28;20105;-48
2022/04/14 02:13:59;;;;;;;14.38;8.95;;;15.90;99.90;;;;;;5054401;28;20029;-44
2022/04/14 02:16:24;;;;;;;14.05;8.30;;;15.90;99.90;;;;;;5054312;28;20060;-47
2022/04/14 02:18:50;;;;;;;10.77;8.98;;;15.90;99.90;;;;;;5054218;28;20087;-46
2022/04/14 02:21:15;;;;;;;14.98;9.07;;;15.80;99.90;;;;;;5054329;28;20349;-45
2022/04/14 02:23:41;;;;;;;17.25;9.27;;;15.80;99.90;;;;;;5054197;28;20056;-44
2022/04/14 02:26:06;;;;;;;11.30;8.80;;;15.80;99.90;;;;;;5054207;28;20029;-43
2022/04/14 02:28:32;;;;;;;13.18;8.75;;;15.80;99.90;;;;;;5053931;28;20025;-49
2022/04/14 02:30:57;;;;;;;14.00;9.10;;;15.70;99.90;;;;;;5054236;28;20025;-44
2022/04/14 02:33:23;;;;;;;10.18;7.78;;;15.70;99.90;;;;;;5054083;28;20497;-44
2022/04/14 02:35:48;;;;;;;14.73;8.65;;;15.70;99.90;;;;;;5053891;28;20033;-48
2022/04/14 02:38:14;;;;;;;12.50;8.10;;;15.60;99.90;;;;;;5053696;28;20071;-47
2022/04/14 02:40:39;;;;;;;14.48;8.45;;;15.50;99.90;;;;;;5054274;28;20025;-44
2022/04/14 02:43:05;;;;;;;12.38;8.52;;;15.40;99.90;;;;;;5054793;28;20030;-47
2022/04/14 02:45:31;;;;;;;17.35;9.40;;;15.40;99.90;;;;;;5054103;28;20025;-46
2022/04/14 02:47:56;;;;;;;12.93;8.93;;;15.40;99.90;;;;;;5053684;28;20282;-45
2022/04/14 02:50:22;;;;;;;11.90;9.32;;;15.40;99.90;;;;;;5053735;28;20032;-48
2022/04/14 02:52:48;;;;;;;15.38;10.25;;;15.30;99.90;;;;;;5053587;28;20023;-45
2022/04/14 02:55:14;;;;;;;21.48;8.35;;;15.30;99.90;;;;;;5053576;28;20048;-45
2022/04/14 02:57:41;;;;;;;8.65;7.38;;;15.40;99.90;;;;;;5053224;28;20433;-44
2022/04/14 03:00:11;;;;;;;13.02;7.03;;;15.30;99.90;;;;;;5053534;28;20025;-45
2022/04/14 03:02:40;;;;;;;10.52;7.55;;;15.30;99.90;;;;;;5053551;28;20484;-48
2022/04/14 03:05:07;;;;;;;12.32;7.93;;;15.30;99.90;;;;;;5053463;28;20029;-44
2022/04/14 03:07:33;;;;;;;14.35;8.93;;;15.30;99.90;;;;;;5052840;28;20029;-48
2022/04/14 03:09:59;;;;;;;13.07;8.73;;;15.30;99.90;;;;;;5053476;28;20029;-48
2022/04/14 03:12:24;;;;;;;10.65;6.75;;;15.30;99.90;;;;;;5052794;28;20158;-47
2022/04/14 03:14:50;;;;;;;7.93;7.13;;;15.30;99.90;;;;;;5053494;28;20029;-45
2022/04/14 03:17:16;;;;;;;12.63;8.82;;;15.30;99.90;;;;;;5052908;28;20037;-45
2022/04/14 03:19:42;;;;;;;13.88;7.93;;;15.20;99.90;;;;;;5053399;28;20021;-47
2022/04/14 03:22:07;;;;;;;11.43;7.63;;;15.20;99.90;;;;;;5053159;28;20032;-46
2022/04/14 03:24:33;;;;;;;12.18;9.60;;;15.10;99.90;;;;;;5053165;28;20067;-44
2022/04/14 03:26:58;;;;;;;12.70;7.50;;;15.10;99.90;;;;;;5052651;28;20028;-44
2022/04/14 03:29:24;;;;;;;17.25;8.45;;;15.20;99.90;;;;;;5053129;28;20107;-46
2022/04/14 03:31:49;;;;;;;14.75;8.20;;;15.10;99.90;;;;;;5053141;28;20453;-43
2022/04/14 03:34:15;;;;;;;11.25;8.45;;;15.10;99.90;;;;;;5052932;28;20033;-44
2022/04/14 03:36:41;;;;;;;12.82;7.85;;;15.10;99.90;;;;;;5052860;28;20036;-47
2022/04/14 03:39:06;;;;;;;12.95;8.35;;;15.10;99.90;;;;;;5052892;28;20033;-45
2022/04/14 03:41:32;;;;;;;12.00;8.50;;;15.00;99.90;;;;;;5052823;28;20586;-48
2022/04/14 03:43:57;;;;;;;9.73;8.40;;;15.00;99.90;;;;;;5052785;28;20021;-45
2022/04/14 03:46:23;;;;;;;13.20;9.27;;;15.00;99.90;;;;;;5052592;28;20476;-44
2022/04/14 03:48:49;;;;;;;14.73;8.25;;;15.10;99.90;;;;;;5052609;28;20056;-46
2022/04/14 03:51:15;;;;;;;13.50;7.78;;;15.10;99.90;;;;;;5052657;28;20052;-44
2022/04/14 03:53:44;;;;;;;11.60;8.07;;;15.10;99.90;;;;;;5052535;28;20021;-44
2022/04/14 03:56:10;;;;;;;11.50;8.50;;;15.10;99.90;;;;;;5052414;28;20079;-46
2022/04/14 03:58:36;;;;;;;13.80;8.02;;;15.10;99.90;;;;;;5052394;28;20033;-44
2022/04/14 04:01:02;;;;;;;15.63;8.27;;;15.10;99.90;;;;;;5052502;28;20032;-43
2022/04/14 04:03:28;;;;;;;11.38;7.35;;;15.10;99.90;;;;;;5052420;28;20107;-45
2022/04/14 04:05:54;;;;;;;13.45;8.15;;;15.10;99.90;;;;;;5052276;28;20052;-48
2022/04/14 04:08:20;;;;;;;20.40;9.60;;;15.20;99.90;;;;;;5052163;28;20064;-44
2022/04/14 04:10:46;;;;;;;11.93;7.07;;;15.20;99.90;;;;;;5052231;28;20474;-48
2022/04/14 04:13:12;;;;;;;14.77;8.68;;;15.20;99.90;;;;;;5052233;28;20053;-45
2022/04/14 04:15:37;;;;;;;17.35;8.68;;;15.20;99.90;;;;;;5052140;28;20029;-44
2022/04/14 04:18:04;;;;;;;15.15;8.77;;;15.20;99.90;;;;;;5051952;28;20029;-44
2022/04/14 04:20:31;;;;;;;16.08;9.38;;;15.20;99.90;;;;;;5052028;28;20029;-44
2022/04/14 04:22:56;;;;;;;15.38;9.02;;;15.20;99.90;;;;;;5051279;28;20033;-44
2022/04/14 04:25:22;;;;;;;18.15;8.55;;;15.10;99.90;;;;;;5051850;28;20619;-46
2022/04/14 04:27:47;;;;;;;14.98;9.32;;;15.10;99.90;;;;;;5051756;28;20033;-45
2022/04/14 04:30:13;;;;;;;12.40;9.25;;;15.00;99.90;;;;;;5051906;28;20057;-45
2022/04/14 04:32:39;;;;;;;15.25;10.32;;;15.00;99.90;;;;;;5051867;28;20037;-46
2022/04/14 04:35:06;;;;;;;12.35;9.77;;;14.90;99.90;;;;;;5051706;28;20025;-46
2022/04/14 04:37:32;;;;;;;16.83;10.48;;;14.90;99.90;;;;;;5051606;28;20113;-43
2022/04/14 04:39:58;;;;;;;16.15;10.23;;;14.90;99.90;;;;;;5033853;28;20116;-44
2022/04/14 04:42:23;;;;;;;14.70;9.40;;;14.80;99.90;;;;;;5051921;28;20196;-46
2022/04/14 04:44:49;;;;;;;13.10;9.43;;;14.90;99.90;;;;;;5050573;28;20037;-48
2022/04/14 04:47:15;;;;;;;14.77;9.70;;;14.90;99.90;;;;;;5051315;28;20051;-48
2022/04/14 04:49:41;;;;;;;15.57;9.45;;;14.90;99.90;;;;;;5051766;28;20043;-44
2022/04/14 04:52:07;;;;;;;17.25;9.77;;;14.90;99.90;;;;;;5051560;28;20508;-49
2022/04/14 04:54:33;;;;;;;19.23;10.40;;;14.90;99.90;;;;;;5051585;28;20023;-46
2022/04/14 04:56:58;;;;;;;16.67;11.35;;;14.90;99.90;;;;;;5051214;28;20064;-47
2022/04/14 04:59:24;;;;;;;14.13;9.98;;;14.90;99.90;;;;;;5051510;28;20092;-46
2022/04/14 05:01:49;;;;;;;20.95;10.80;;;14.90;99.90;;;;;;5051506;28;20017;-44
2022/04/14 05:04:15;;;;;;;17.60;11.20;;;14.90;99.90;;;;;;5051442;28;20424;-45
2022/04/14 05:06:40;;;;;;;16.80;10.57;;;14.90;99.90;;;;;;5051320;28;20080;-46
2022/04/14 05:09:06;;;;;;;18.92;10.93;;;15.00;99.90;;;;;;5051228;28;20017;-48
2022/04/14 05:11:33;;;;;;;17.00;10.57;;;15.00;99.90;;;;;;5051675;28;20527;-45
2022/04/14 05:13:58;;;;;;;16.90;10.07;;;15.00;99.90;;;;;;5051439;28;20025;-44
2022/04/14 05:16:24;;;;;;;19.65;11.05;;;15.00;99.90;;;;;;5051080;28;20036;-43
2022/04/14 05:18:50;;;;;;;15.63;10.75;;;15.00;99.90;;;;;;5050769;28;20029;-45
2022/04/14 05:21:16;;;;;;;15.68;10.48;;;15.00;99.90;;;;;;5051140;28;20112;-46
2022/04/14 05:23:42;;;;;;;16.50;11.20;;;15.00;99.90;;;;;;5051495;28;20102;-45
2022/04/14 05:26:08;;;;;;;18.27;11.63;;;15.00;99.90;;;;;;5051221;28;20057;-45
2022/04/14 05:28:33;;;;;;;23.42;11.52;;;15.00;99.90;;;;;;5048159;28;20028;-48
2022/04/14 05:31:00;;;;;;;21.70;10.88;;;15.10;99.90;;;;;;5051312;28;20029;-48
2022/04/14 05:33:25;;;;;;;17.52;10.63;;;15.10;99.90;;;;;;5050828;28;20125;-44
2022/04/14 05:35:51;;;;;;;12.88;10.18;;;15.10;99.90;;;;;;5054810;28;20124;-43
2022/04/14 05:38:16;;;;;;;22.55;10.50;;;15.10;99.90;;;;;;5054710;28;20106;-45
2022/04/14 05:40:43;;;;;;;15.32;10.98;;;15.10;99.90;;;;;;5055217;28;20068;-43
2022/04/14 05:43:16;;;;;;;16.52;11.13;;;15.20;99.90;;;;;;5055316;28;20029;-45
2022/04/14 05:45:44;;;;;;;18.48;11.93;;;15.20;99.90;;;;;;5055204;28;20116;-43
2022/04/14 05:48:12;;;;;;;15.65;11.82;;;15.20;99.90;;;;;;5054544;28;20021;-45
2022/04/14 05:50:38;;;;;;;19.73;13.25;;;15.20;99.90;;;;;;5054924;28;20021;-46
2022/04/14 05:53:04;;;;;;;17.80;11.20;;;15.10;99.90;;;;;;5054986;28;20096;-44
2022/04/14 05:55:29;;;;;;;21.90;10.80;;;15.20;99.90;;;;;;5054575;28;20365;-43
2022/04/14 05:57:55;;;;;;;16.35;11.98;;;15.30;99.90;;;;;;5054191;28;20440;-44
2022/04/14 06:00:20;;;;;;;17.55;12.50;;;15.30;99.90;;;;;;5036525;28;20032;-45
2022/04/14 06:02:46;;;;;;;20.63;14.10;;;15.40;99.90;;;;;;5054337;28;20438;-46
2022/04/14 06:05:12;;;;;;;17.98;12.45;;;15.50;99.90;;;;;;5054269;28;20406;-47
2022/04/14 06:07:38;;;;;;;17.42;12.95;;;15.70;99.90;;;;;;5054145;28;20029;-47
2022/04/14 06:10:03;;;;;;;20.63;13.50;;;15.80;99.90;;;;;;5054116;28;20021;-46
2022/04/14 06:12:29;;;;;;;18.95;13.32;;;16.00;99.90;;;;;;5053710;28;20032;-49
2022/04/14 06:14:54;;;;;;;23.75;14.43;;;16.20;99.90;;;;;;5054640;28;20446;-46
2022/04/14 06:17:20;;;;;;;20.17;13.07;;;16.30;99.90;;;;;;5073801;23;20481;-49
2022/04/14 06:19:45;;;;;;;18.88;14.30;;;16.50;99.90;;;;;;5054350;28;20029;-50
2022/04/14 06:22:11;;;;;;;20.20;14.73;;;16.60;99.90;;;;;;5054496;28;20021;-47
2022/04/14 06:24:36;;;;;;;19.20;14.20;;;16.50;99.90;;;;;;5053031;28;20028;-46
2022/04/14 06:27:02;;;;;;;18.48;15.60;;;16.40;99.90;;;;;;5052559;28;20075;-48
2022/04/14 06:29:28;;;;;;;22.90;15.55;;;16.10;99.90;;;;;;5051522;28;20480;-48
2022/04/14 06:31:53;;;;;;;24.15;16.63;;;15.90;99.90;;;;;;5054373;28;20021;-45
2022/04/14 06:34:19;;;;;;;34.92;23.55;;;15.70;99.90;;;;;;5054229;28;20036;-45
2022/04/14 06:36:44;;;;;;;23.95;16.33;;;15.60;99.90;;;;;;5054138;28;20025;-49
2022/04/14 06:39:12;;;;;;;18.77;15.38;;;15.70;99.90;;;;;;5054735;28;20403;-45
2022/04/14 06:41:39;;;;;;;21.52;15.38;;;15.70;99.90;;;;;;5054000;28;20392;-43
2022/04/14 06:44:05;;;;;;;23.88;16.30;;;15.70;99.90;;;;;;5054085;28;20032;-47
2022/04/14 06:46:31;;;;;;;22.40;16.30;;;15.80;99.90;;;;;;5052776;28;20028;-45
2022/04/14 06:48:57;;;;;;;21.58;15.75;;;15.80;99.90;;;;;;5053689;28;20481;-50
2022/04/14 06:51:22;;;;;;;26.95;16.55;;;15.80;99.90;;;;;;5053813;28;20575;-44
2022/04/14 06:53:48;;;;;;;25.70;16.30;;;15.80;99.90;;;;;;5053802;28;20112;-42
2022/04/14 06:56:14;;;;;;;20.60;15.55;;;15.80;99.90;;;;;;5053722;28;20439;-47
2022/04/14 06:58:41;;;;;;;23.75;15.73;;;15.90;99.90;;;;;;5053387;28;20040;-50
2022/04/14 07:01:07;;;;;;;23.02;16.15;;;15.90;99.90;;;;;;5035774;28;20116;-48
2022/04/14 07:03:33;;;;;;;21.88;15.93;;;16.00;99.90;;;;;;5053590;28;20104;-50
2022/04/14 07:06:00;;;;;;;22.58;15.50;;;15.90;99.90;;;;;;5053416;28;20453;-42
2022/04/14 07:08:26;;;;;;;22.42;16.10;;;15.90;99.90;;;;;;5053301;28;20096;-48
2022/04/14 07:10:52;;;;;;;21.70;16.25;;;16.00;99.90;;;;;;5053397;28;20047;-47
2022/04/14 07:13:18;;;;;;;21.15;14.50;;;15.80;99.90;;;;;;5053806;28;20146;-51
2022/04/14 07:15:44;;;;;;;17.38;14.48;;;15.80;99.90;;;;;;5053165;28;20046;-46
2022/04/14 07:18:10;;;;;;;21.92;16.27;;;15.70;99.90;;;;;;5053174;28;20017;-45
2022/04/14 07:20:36;;;;;;;20.45;15.18;;;15.70;99.90;;;;;;5053098;28;20036;-45
2022/04/14 07:23:03;;;;;;;24.33;15.48;;;15.60;99.90;;;;;;5053331;28;20133;-49
2022/04/14 07:25:31;;;;;;;19.58;15.10;;;15.70;99.90;;;;;;5053009;28;20027;-47
2022/04/14 07:27:56;;;;;;;18.60;15.13;;;15.70;99.90;;;;;;5053014;28;20029;-42
2022/04/14 07:30:23;;;;;;;19.42;14.65;;;15.70;99.90;;;;;;5053158;28;20033;-46
2022/04/14 07:32:49;;;;;;;19.40;13.85;;;15.80;99.90;;;;;;5053024;28;20519;-43
2022/04/14 07:35:16;;;;;;;22.48;13.65;;;15.80;99.90;;;;;;5052828;28;20025;-48
2022/04/14 07:37:43;;;;;;;16.75;13.60;;;15.90;99.90;;;;;;5052721;28;20370;-44
2022/04/14 07:40:09;;;;;;;19.65;15.15;;;16.00;99.90;;;;;;5052942;28;20021;-41
2022/04/14 07:42:36;;;;;;;30.17;22.15;;;16.10;99.90;;;;;;5052818;28;20035;-46
2022/04/14 07:45:03;;;;;;;21.13;15.05;;;16.10;99.90;;;;;;5052740;28;20040;-41
2022/04/14 07:47:28;;;;;;;20.88;13.38;;;16.10;99.90;;;;;;5052451;28;20469;-42
2022/04/14 07:49:54;;;;;;;20.73;13.55;;;16.00;99.90;;;;;;5033793;28;20025;-43
2022/04/14 07:52:20;;;;;;;21.75;15.07;;;16.00;99.90;;;;;;5051164;28;20044;-46
2022/04/14 07:54:45;;;;;;;19.52;14.23;;;15.90;99.90;;;;;;5050758;28;20151;-46
2022/04/14 07:57:11;;;;;;;21.30;16.15;;;15.80;99.90;;;;;;5052563;28;20025;-48
2022/04/14 07:59:37;;;;;;;17.23;13.50;;;15.80;99.90;;;;;;5052448;28;20109;-40
2022/04/14 08:02:03;;;;;;;17.00;13.10;;;15.80;99.90;;;;;;5052534;28;20025;-44
2022/04/14 08:04:30;;;;;;;22.83;14.82;;;15.80;99.90;;;;;;5052262;28;20162;-48
2022/04/14 08:06:56;;;;;;;19.70;13.90;;;15.90;99.90;;;;;;5052143;28;20055;-45
2022/04/14 08:09:21;;;;;;;23.02;13.65;;;16.00;99.90;;;;;;5052432;28;20064;-43
2022/04/14 08:11:47;;;;;;;18.85;14.30;;;16.00;99.90;;;;;;5052167;28;20146;-49
2022/04/14 08:14:13;;;;;;;17.23;13.50;;;16.00;99.90;;;;;;5052227;28;20048;-48
2022/04/14 08:16:38;;;;;;;19.67;14.18;;;16.00;99.90;;;;;;5052058;28;20094;-46
2022/04/14 08:19:04;;;;;;;20.00;14.68;;;16.00;99.90;;;;;;5051941;28;20033;-46
2022/04/14 08:21:30;;;;;;;20.40;14.15;;;16.10;99.90;;;;;;5052272;28;20029;-46
2022/04/14 08:23:58;;;;;;;23.88;14.35;;;16.00;99.90;;;;;;5051974;28;20020;-42
2022/04/14 08:26:25;;;;;;;22.33;13.18;;;16.10;99.90;;;;;;5051861;28;20507;-48
2022/04/14 08:28:53;;;;;;;20.10;13.68;;;16.10;99.90;;;;;;5051865;28;20512;-46
2022/04/14 08:31:21;;;;;;;19.23;12.65;;;16.10;99.90;;;;;;5051984;28;20128;-50
2022/04/14 08:33:47;;;;;;;18.08;12.93;;;16.10;99.90;;;;;;5051973;28;20542;-46
2022/04/14 08:36:15;;;;;;;17.88;13.00;;;16.10;99.90;;;;;;5051784;28;20086;-43
2022/04/14 08:38:45;;;;;;;17.60;13.70;;;16.20;99.90;;;;;;5051678;28;20147;-47
2022/04/14 08:41:13;;;;;;;15.77;12.25;;;16.30;99.90;;;;;;5051706;28;20029;-46
2022/04/14 08:43:48;;;;;;;18.17;11.15;;;16.40;99.90;;;;;;5050575;28;20566;-48
2022/04/14 08:46:15;;;;;;;15.73;11.02;;;16.40;99.90;;;;;;5051574;28;20039;-50
2022/04/14 08:48:42;;;;;;;21.35;12.40;;;16.50;99.90;;;;;;5051398;28;20397;-44
2022/04/14 08:51:10;;;;;;;15.18;11.15;;;16.60;99.90;;;;;;5051579;28;20412;-46
2022/04/14 08:53:38;;;;;;;19.42;12.60;;;16.70;99.90;;;;;;5051570;28;20389;-40
2022/04/14 08:56:05;;;;;;;25.65;19.27;;;16.90;99.90;;;;;;5051161;28;20064;-46
2022/04/14 08:58:32;;;;;;;20.70;15.18;;;17.20;99.90;;;;;;5044931;28;20048;-48
2022/04/14 09:00:58;;;;;;;17.60;11.20;;;17.70;99.90;;;;;;5028155;28;20024;-46
2022/04/14 09:03:27;;;;;;;16.08;9.90;;;18.00;99.90;;;;;;5051950;28;20412;-45
2022/04/14 09:05:55;;;;;;;16.40;9.63;;;18.00;99.90;;;;;;5051888;28;20025;-45
2022/04/14 09:08:21;;;;;;;16.08;8.90;;;17.90;99.90;;;;;;5050069;28;20441;-45
2022/04/14 09:10:48;;;;;;;18.70;9.00;;;17.70;99.90;;;;;;5051385;28;20396;-45
2022/04/14 09:13:14;;;;;;;14.05;9.48;;;17.60;99.90;;;;;;5051982;28;20028;-48
2022/04/14 09:15:39;;;;;;;13.23;9.50;;;17.50;99.90;;;;;;5051529;28;20025;-49
2022/04/14 09:18:07;;;;;;;16.20;8.82;;;17.50;99.90;;;;;;5051885;28;20408;-43
2022/04/14 09:20:38;;;;;;;12.00;7.85;;;17.60;99.90;;;;;;5050728;28;20127;-45
2022/04/14 09:23:26;;;;;;;13.52;8.50;;;17.90;99.90;;;;;;5051741;28;20025;-55
2022/04/14 09:26:06;;;;;;;17.52;8.45;;;18.20;99.90;;;;;;5042012;28;20029;-56
2022/04/14 09:28:32;;;;;;;13.18;8.82;;;18.30;99.90;;;;;;5050545;28;20485;-50
2022/04/14 09:30:58;;;;;;;13.68;8.27;;;18.40;99.90;;;;;;5050058;28;20036;-49
2022/04/14 09:33:24;;;;;;;12.02;8.00;;;18.30;99.90;;;;;;5050981;28;20031;-53
2022/04/14 09:36:17;;;;;;;16.02;8.80;;;18.30;99.90;;;;;;5050848;28;20122;-50
2022/04/14 09:39:05;;;;;;;13.50;8.05;;;18.00;99.90;;;;;;5050804;28;20374;-53
2022/04/14 09:41:32;;;;;;;12.63;8.70;;;18.00;99.90;;;;;;5050968;28;20025;-53
2022/04/14 09:43:59;;;;;;;11.90;7.80;;;17.80;99.90;;;;;;5051092;28;20021;-51
2022/04/14 09:46:25;;;;;;;13.73;8.98;;;18.20;99.90;;;;;;5050741;28;20028;-50
2022/04/14 09:49:08;;;;;;;16.95;8.00;;;18.20;99.90;;;;;;5032848;28;20028;-53
2022/04/14 09:51:43;;;;;;;10.02;7.72;;;18.60;99.90;;;;;;5049594;28;20027;-50
2022/04/14 09:54:15;;;;;;;10.60;6.47;;;18.80;99.30;;;;;;5051039;28;20095;-51
2022/04/14 09:56:49;;;;;;;10.77;6.25;;;19.00;98.70;;;;;;5050895;28;20027;-49
2022/04/14 09:59:17;;;;;;;8.45;5.05;;;18.80;98.80;;;;;;5050768;28;20047;-50
2022/04/14 10:01:43;;;;;;;6.60;4.85;;;18.80;98.00;;;;;;5050979;28;20396;-55
2022/04/14 10:04:31;;;;;;;7.63;6.68;;;18.80;98.50;;;;;;5050759;28;20025;-52
2022/04/14 10:07:14;;;;;;;7.18;4.70;;;18.90;98.50;;;;;;5050427;28;20031;-54
2022/04/14 10:09:43;;;;;;;7.88;5.25;;;18.80;98.30;;;;;;5050733;28;20057;-50
2022/04/14 10:12:17;;;;;;;13.95;4.85;;;18.90;98.00;;;;;;5051041;28;20112;-52
2022/04/14 10:14:56;;;;;;;8.70;4.40;;;19.00;98.20;;;;;;5050830;28;20028;-53
2022/04/14 10:17:26;;;;;;;34.92;23.48;;;19.10;97.90;;;;;;5050728;28;20060;-53
2022/04/14 10:19:52;;;;;;;9.63;6.32;;;19.20;97.90;;;;;;5052258;28;20037;-54
2022/04/14 10:22:18;;;;;;;7.70;4.57;;;19.00;97.60;;;;;;5055828;28;20429;-55
2022/04/14 10:24:45;;;;;;;6.80;4.18;;;19.00;97.90;;;;;;5054719;28;20484;-52
2022/04/14 10:27:11;;;;;;;4.85;3.60;;;18.80;98.20;;;;;;5053799;28;20036;-51
2022/04/14 10:29:39;;;;;;;5.80;3.67;;;18.60;98.20;;;;;;5054268;28;20025;-55
2022/04/14 10:32:05;;;;;;;5.80;3.33;;;18.40;98.50;;;;;;5054296;28;20483;-52
2022/04/14 10:34:32;;;;;;;5.82;4.00;;;18.50;98.20;;;;;;5054196;28;20017;-53
2022/04/14 10:36:59;;;;;;;6.13;3.50;;;18.20;98.40;;;;;;5053783;28;20158;-50
2022/04/14 10:39:27;;;;;;;6.10;3.58;;;18.10;98.70;;;;;;5053827;28;20557;-52
2022/04/14 10:41:54;;;;;;;4.82;3.50;;;18.00;98.70;;;;;;5053765;28;20503;-52
2022/04/14 10:44:21;;;;;;;3.63;2.65;;;17.90;99.00;;;;;;5053911;28;20041;-55
2022/04/14 10:46:50;;;;;;;6.88;2.90;;;17.90;99.30;;;;;;5053601;28;20032;-50
2022/04/14 10:49:22;;;;;;;7.70;2.53;;;17.80;99.30;;;;;;5053740;28;20017;-50
2022/04/14 10:51:50;;;;;;;4.53;2.50;;;17.60;99.60;;;;;;5053866;28;20060;-52
2022/04/14 10:54:18;;;;;;;3.13;2.83;;;17.70;99.80;;;;;;5053681;28;20032;-51
2022/04/14 10:56:47;;;;;;;4.18;2.20;;;17.80;99.90;;;;;;5053448;28;20104;-50
2022/04/14 10:59:20;;;;;;;3.80;2.83;;;17.80;99.50;;;;;;5053509;28;20095;-50
2022/04/14 11:01:50;;;;;;;5.93;2.60;;;17.80;99.40;;;;;;5053536;28;20032;-52
2022/04/14 11:04:34;;;;;;;3.00;1.92;;;17.80;99.60;;;;;;5053575;28;20017;-51
2022/04/14 11:07:17;;;;;;;3.45;2.47;;;17.90;98.80;;;;;;5053152;28;20087;-50
2022/04/14 11:09:43;;;;;;;2.65;1.38;;;17.70;98.90;;;;;;5053523;28;20166;-50
2022/04/14 11:12:12;;;;;;;3.03;1.83;;;17.90;98.60;;;;;;5053329;28;20029;-52
2022/04/14 11:15:01;;;;;;;3.83;2.10;;;17.80;98.90;;;;;;5053333;28;20029;-49
2022/04/14 11:17:37;;;;;;;3.75;2.40;;;17.80;98.90;;;;;;5052968;28;20036;-51
2022/04/14 11:20:37;;;;;;;5.15;2.47;;;17.80;99.20;;;;;;5053369;28;20041;-55
2022/04/14 11:23:06;;;;;;;5.55;2.65;;;17.90;99.10;;;;;;4993135;28;20051;-54
2022/04/14 11:25:42;;;;;;;4.15;3.35;;;18.10;99.10;;;;;;5053400;28;20036;-51
2022/04/14 11:28:26;;;;;;;7.22;3.80;;;18.00;99.40;;;;;;5052935;28;20025;-55
2022/04/14 11:30:59;;;;;;;5.25;3.65;;;18.30;99.20;;;;;;5053079;28;20400;-53
2022/04/14 11:33:28;;;;;;;6.63;3.88;;;18.30;99.10;;;;;;5052593;28;20071;-54
2022/04/14 11:36:14;;;;;;;4.90;3.80;;;18.40;99.40;;;;;;5052976;28;20035;-50
2022/04/14 11:38:56;;;;;;;4.82;3.42;;;18.70;99.30;;;;;;5052055;28;20060;-49
2022/04/14 11:41:36;;;;;;;7.88;3.88;;;18.80;98.90;;;;;;5034950;28;20116;-51
2022/04/14 11:44:11;;;;;;;5.45;4.50;;;19.10;99.20;;;;;;5052936;28;20053;-52
2022/04/14 11:46:38;;;;;;;9.10;5.30;;;19.30;98.60;;;;;;5053022;28;20023;-49
2022/04/14 11:49:05;;;;;;;5.47;3.63;;;19.40;98.40;;;;;;5052380;28;20631;-50
2022/04/14 11:51:31;;;;;;;36.35;24.70;;;19.60;97.70;;;;;;5052735;28;20055;-51
2022/04/14 11:53:57;;;;;;;11.65;8.70;;;19.50;97.70;;;;;;5052577;28;20048;-53
2022/04/14 11:56:24;;;;;;;5.88;3.45;;;19.60;97.80;;;;;;5052436;28;20104;-51
2022/04/14 11:58:51;;;;;;;7.63;3.60;;;19.60;97.20;;;;;;5052479;28;20066;-51
2022/04/14 12:01:17;;;;;;;4.43;3.85;;;19.50;97.50;;;;;;5052491;28;20446;-53
2022/04/14 12:03:43;;;;;;;8.90;4.32;;;19.50;97.20;;;;;;5052525;28;20047;-56
2022/04/14 12:06:16;;;;;;;9.45;5.15;;;19.50;97.30;;;;;;5052203;28;20100;-51
2022/04/14 12:08:41;;;;;;;9.15;4.38;;;19.10;97.40;;;;;;5052079;28;20034;-53
2022/04/14 12:11:16;;;;;;;8.60;4.80;;;19.00;98.30;;;;;;5052155;28;20383;-54
2022/04/14 12:13:42;;;;;;;9.02;4.93;;;19.20;98.00;;;;;;5052428;28;20021;-53
2022/04/14 12:16:09;;;;;;;7.88;5.07;;;19.20;97.80;;;;;;5052048;28;20029;-55
2022/04/14 12:18:38;;;;;;;10.45;4.72;;;19.40;97.80;;;;;;5064789;23;20040;-45
2022/04/14 12:21:07;;;;;;;9.80;4.05;;;19.50;97.50;;;;;;5052681;28;20475;-49
2022/04/14 12:23:33;;;;;;;7.38;5.32;;;19.60;97.30;;;;;;5052169;28;20018;-47
2022/04/14 12:26:03;;;;;;;8.13;4.00;;;19.60;96.90;;;;;;5052117;28;20109;-50
2022/04/14 12:28:29;;;;;;;10.35;4.63;;;19.60;97.40;;;;;;5051739;28;20035;-47
2022/04/14 12:30:55;;;;;;;6.80;4.72;;;19.60;97.10;;;;;;5052088;28;20447;-47
2022/04/14 12:33:29;;;;;;;6.18;4.45;;;19.50;97.00;;;;;;5052161;28;20017;-45
2022/04/14 12:36:09;;;;;;;5.50;4.32;;;19.40;97.70;;;;;;5052248;28;20025;-48
2022/04/14 12:38:43;;;;;;;6.50;4.15;;;19.40;97.80;;;;;;5051826;28;20033;-46